sensor_id;sensor_type;location;lat;lon;timestamp;temperature;humidity
60868;DHT22;46702;48.370;10.794;2022-11-15T00:01:09;3.00;99.90
60868;DHT22;46702;48.370;10.794;2022-11-15T00:03:35;3.00;99.90
60868;DHT22;46702;48.370;10.794;2022-11-15T00:06:02;2.70;99.90
60868;DHT22;46702;48.370;10.794;2022-11-15T00:08:30;2.70;99.90
60868;DHT22;46702;48.370;10.794;2022-11-15T00:11:01;2.80;99.90
60868;DHT22;46702;48.370;10.794;2022-11-15T00:13:29;2.90;99.90
60868;DHT22;46702;48.370;10.794;2022-11-15T00:16:00;3.00;99.90
60868;DHT22;46702;48.370;10.794;2022-11-15T00:18:27;3.00;99.90
60868;DHT22;46702;48.370;10.794;2022-11-15T00:21:04;2.80;99.90
60868;DHT22;46702;48.370;10.794;2022-11-15T00:23:31;2.70;99.90
60868;DHT22;46702;48.370;10.794;2022-11-15T00:26:01;2.70;99.90
60868;DHT22;46702;48.370;10.794;2022-11-15T00:28:27;2.80;99.90
60868;DHT22;46702;48.370;10.794;2022-11-15T00:30:53;2.90;99.90
60868;DHT22;46702;48.370;10.794;2022-11-15T00:33:19;3.00;99.90
60868;DHT22;46702;48.370;10.794;2022-11-15T00:35:52;3.00;99.90
60868;DHT22;46702;48.370;10.794;2022-11-15T00:38:19;3.10;99.90
60868;DHT22;46702;48.370;10.794;2022-11-15T00:40:45;3.10;99.90
60868;DHT22;46702;48.370;10.794;2022-11-15T00:43:12;3.20;99.90
60868;DHT22;46702;48.370;10.794;2022-11-15T00:45:38;3.20;99.90
60868;DHT22;46702;48.370;10.794;2022-11-15T00:48:05;3.30;99.90
60868;DHT22;46702;48.370;10.794;2022-11-15T00:50:31;3.30;99.90
60868;DHT22;46702;48.370;10.794;2022-11-15T00:52:57;3.30;99.90
60868;DHT22;46702;48.370;10.794;2022-11-15T00:55:27;3.30;99.90
60868;DHT22;46702;48.370;10.794;2022-11-15T00:57:53;3.10;99.90
60868;DHT22;46702;48.370;10.794;2022-11-15T01:00:20;2.90;99.90
60868;DHT22;46702;48.370;10.794;2022-11-15T01:02:46;2.90;99.90
60868;DHT22;46702;48.370;10.794;2022-11-15T01:05:14;2.90;99.90
60868;DHT22;46702;48.370;10.794;2022-11-15T01:07:41;2.90;99.90
60868;DHT22;46702;48.370;10.794;2022-11-15T01:10:10;2.90;99.90
60868;DHT22;46702;48.370;10.794;2022-11-15T01:12:36;2.90;99.90
60868;DHT22;46702;48.370;10.794;2022-11-15T01:15:03;3.00;99.90
60868;DHT22;46702;48.370;10.794;2022-11-15T01:17:31;3.10;99.90
60868;DHT22;46702;48.370;10.794;2022-11-15T01:19:57;3.10;99.90
60868;DHT22;46702;48.370;10.794;2022-11-15T01:22:27;3.00;99.90
60868;DHT22;46702;48.370;10.794;2022-11-15T01:24:53;3.10;99.90
60868;DHT22;46702;48.370;10.794;2022-11-15T01:27:21;2.90;99.90
60868;DHT22;46702;48.370;10.794;2022-11-15T01:29:48;2.90;99.90
60868;DHT22;46702;48.370;10.794;2022-11-15T01:32:19;2.90;99.90
60868;DHT22;46702;48.370;10.794;2022-11-15T01:34:45;3.00;99.90
60868;DHT22;46702;48.370;10.794;2022-11-15T01:37:12;2.90;99.90
60868;DHT22;46702;48.370;10.794;2022-11-15T01:39:38;2.80;99.90
60868;DHT22;46702;48.370;10.794;2022-11-15T01:42:05;2.80;99.90
60868;DHT22;46702;48.370;10.794;2022-11-15T01:47:16;2.80;99.90
60868;DHT22;46702;48.370;10.794;2022-11-15T01:50:05;2.60;99.90
60868;DHT22;46702;48.370;10.794;2022-11-15T01:52:33;2.50;99.90
60868;DHT22;46702;48.370;10.794;2022-11-15T01:55:24;2.30;99.90
60868;DHT22;46702;48.370;10.794;2022-11-15T01:57:56;2.10;99.90
60868;DHT22;46702;48.370;10.794;2022-11-15T02:00:23;2.00;99.90
60868;DHT22;46702;48.370;10.794;2022-11-15T02:02:48;2.10;99.90
60868;DHT22;46702;48.370;10.794;2022-11-15T02:05:14;2.30;99.90
60868;DHT22;46702;48.370;10.794;2022-11-15T02:07:40;2.30;99.90
60868;DHT22;46702;48.370;10.794;2022-11-15T02:10:17;2.30;99.90
60868;DHT22;46702;48.370;10.794;2022-11-15T02:12:43;2.30;99.90
60868;DHT22;46702;48.370;10.794;2022-11-15T02:15:09;2.50;99.90
60868;DHT22;46702;48.370;10.794;2022-11-15T02:17:51;2.50;99.90
60868;DHT22;46702;48.370;10.794;2022-11-15T02:26:58;1.90;99.90
60868;DHT22;46702;48.370;10.794;2022-11-15T02:29:12;1.90;99.90
60868;DHT22;46702;48.370;10.794;2022-11-15T02:31:55;2.00;99.90
60868;DHT22;46702;48.370;10.794;2022-11-15T02:37:07;2.20;99.90
60868;DHT22;46702;48.370;10.794;2022-11-15T02:42:13;2.40;99.90
60868;DHT22;46702;48.370;10.794;2022-11-15T02:45:03;2.30;99.90
60868;DHT22;46702;48.370;10.794;2022-11-15T02:47:32;2.30;99.90
60868;DHT22;46702;48.370;10.794;2022-11-15T02:50:03;2.10;99.90
60868;DHT22;46702;48.370;10.794;2022-11-15T02:52:31;2.10;99.90
60868;DHT22;46702;48.370;10.794;2022-11-15T02:55:01;2.20;99.90
60868;DHT22;46702;48.370;10.794;2022-11-15T03:00:50;2.20;99.90
60868;DHT22;46702;48.370;10.794;2022-11-15T03:06:20;2.20;99.90
60868;DHT22;46702;48.370;10.794;2022-11-15T03:08:57;2.30;99.90
60868;DHT22;46702;48.370;10.794;2022-11-15T03:11:29;2.30;99.90
60868;DHT22;46702;48.370;10.794;2022-11-15T03:19:29;2.40;99.90
60868;DHT22;46702;48.370;10.794;2022-11-15T03:21:59;2.40;99.90
60868;DHT22;46702;48.370;10.794;2022-11-15T03:24:28;2.40;99.90
60868;DHT22;46702;48.370;10.794;2022-11-15T03:26:57;2.40;99.90
60868;DHT22;46702;48.370;10.794;2022-11-15T03:29:30;2.30;99.90
60868;DHT22;46702;48.370;10.794;2022-11-15T03:32:02;2.30;99.90
60868;DHT22;46702;48.370;10.794;2022-11-15T03:34:34;2.30;99.90
60868;DHT22;46702;48.370;10.794;2022-11-15T03:37:01;2.20;99.90
60868;DHT22;46702;48.370;10.794;2022-11-15T03:39:29;2.10;99.90
60868;DHT22;46702;48.370;10.794;2022-11-15T03:42:25;2.00;99.90
60868;DHT22;46702;48.370;10.794;2022-11-15T03:45:52;2.00;99.90
60868;DHT22;46702;48.370;10.794;2022-11-15T03:48:14;1.90;99.90
60868;DHT22;46702;48.370;10.794;2022-11-15T03:50:42;2.00;99.90
60868;DHT22;46702;48.370;10.794;2022-11-15T03:53:09;2.00;99.90
60868;DHT22;46702;48.370;10.794;2022-11-15T03:55:35;2.00;99.90
60868;DHT22;46702;48.370;10.794;2022-11-15T03:58:01;2.10;99.90
60868;DHT22;46702;48.370;10.794;2022-11-15T04:00:28;2.00;99.90
60868;DHT22;46702;48.370;10.794;2022-11-15T04:02:53;2.00;99.90
60868;DHT22;46702;48.370;10.794;2022-11-15T04:05:19;2.00;99.90
60868;DHT22;46702;48.370;10.794;2022-11-15T04:07:45;2.00;99.90
60868;DHT22;46702;48.370;10.794;2022-11-15T04:10:11;2.00;99.90
60868;DHT22;46702;48.370;10.794;2022-11-15T04:12:39;2.00;99.90
60868;DHT22;46702;48.370;10.794;2022-11-15T04:15:13;2.00;99.90
60868;DHT22;46702;48.370;10.794;2022-11-15T04:17:40;2.00;99.90
60868;DHT22;46702;48.370;10.794;2022-11-15T04:20:27;2.00;99.90
60868;DHT22;46702;48.370;10.794;2022-11-15T04:23:14;2.00;99.90
60868;DHT22;46702;48.370;10.794;2022-11-15T04:26:01;2.00;99.90
60868;DHT22;46702;48.370;10.794;2022-11-15T04:28:27;1.90;99.90
60868;DHT22;46702;48.370;10.794;2022-11-15T04:30:52;1.80;99.90
60868;DHT22;46702;48.370;10.794;2022-11-15T04:33:18;1.70;99.90
60868;DHT22;46702;48.370;10.794;2022-11-15T04:35:44;1.80;99.90
60868;DHT22;46702;48.370;10.794;2022-11-15T04:38:29;1.80;99.90
60868;DHT22;46702;48.370;10.794;2022-11-15T04:40:55;1.80;99.90
60868;DHT22;46702;48.370;10.794;2022-11-15T04:43:21;1.70;99.90
60868;DHT22;46702;48.370;10.794;2022-11-15T04:45:46;1.80;99.90
60868;DHT22;46702;48.370;10.794;2022-11-15T04:48:12;1.80;99.90
60868;DHT22;46702;48.370;10.794;2022-11-15T04:50:37;1.70;99.90
60868;DHT22;46702;48.370;10.794;2022-11-15T04:53:03;1.60;99.90
60868;DHT22;46702;48.370;10.794;2022-11-15T04:55:28;1.70;99.90
60868;DHT22;46702;48.370;10.794;2022-11-15T04:57:59;1.70;99.90
60868;DHT22;46702;48.370;10.794;2022-11-15T05:00:25;1.70;99.90
60868;DHT22;46702;48.370;10.794;2022-11-15T05:02:54;1.70;99.90
60868;DHT22;46702;48.370;10.794;2022-11-15T05:05:39;1.50;99.90
60868;DHT22;46702;48.370;10.794;2022-11-15T05:08:04;1.20;99.90
60868;DHT22;46702;48.370;10.794;2022-11-15T05:10:30;1.20;99.90
60868;DHT22;46702;48.370;10.794;2022-11-15T05:12:56;1.30;99.90
60868;DHT22;46702;48.370;10.794;2022-11-15T05:15:21;1.30;99.90
60868;DHT22;46702;48.370;10.794;2022-11-15T05:17:47;1.20;99.90
60868;DHT22;46702;48.370;10.794;2022-11-15T05:20:13;1.30;99.90
60868;DHT22;46702;48.370;10.794;2022-11-15T05:22:39;1.30;99.90
60868;DHT22;46702;48.370;10.794;2022-11-15T05:25:05;1.20;99.90
60868;DHT22;46702;48.370;10.794;2022-11-15T05:27:30;1.10;99.90
60868;DHT22;46702;48.370;10.794;2022-11-15T05:29:56;1.10;99.90
60868;DHT22;46702;48.370;10.794;2022-11-15T05:32:22;1.10;99.90
60868;DHT22;46702;48.370;10.794;2022-11-15T05:34:47;1.00;99.90
60868;DHT22;46702;48.370;10.794;2022-11-15T05:37:14;0.90;99.90
60868;DHT22;46702;48.370;10.794;2022-11-15T05:39:39;0.90;99.90
60868;DHT22;46702;48.370;10.794;2022-11-15T05:42:09;0.90;99.90
60868;DHT22;46702;48.370;10.794;2022-11-15T05:44:37;1.00;99.90
60868;DHT22;46702;48.370;10.794;2022-11-15T05:47:05;1.10;99.90
60868;DHT22;46702;48.370;10.794;2022-11-15T05:49:35;1.10;99.90
60868;DHT22;46702;48.370;10.794;2022-11-15T05:52:04;1.20;99.90
60868;DHT22;46702;48.370;10.794;2022-11-15T05:54:31;1.30;99.90
60868;DHT22;46702;48.370;10.794;2022-11-15T05:56:57;1.30;99.90
60868;DHT22;46702;48.370;10.794;2022-11-15T05:59:23;1.40;99.90
60868;DHT22;46702;48.370;10.794;2022-11-15T06:01:49;1.30;99.90
60868;DHT22;46702;48.370;10.794;2022-11-15T06:04:14;1.20;99.90
60868;DHT22;46702;48.370;10.794;2022-11-15T06:06:40;0.90;99.90
60868;DHT22;46702;48.370;10.794;2022-11-15T06:09:06;1.00;99.90
60868;DHT22;46702;48.370;10.794;2022-11-15T06:11:31;0.90;99.90
60868;DHT22;46702;48.370;10.794;2022-11-15T06:13:57;0.90;99.90
60868;DHT22;46702;48.370;10.794;2022-11-15T06:16:22;1.00;99.90
60868;DHT22;46702;48.370;10.794;2022-11-15T06:18:48;0.90;99.90
60868;DHT22;46702;48.370;10.794;2022-11-15T06:21:14;0.80;99.90
60868;DHT22;46702;48.370;10.794;2022-11-15T06:23:39;0.80;99.90
60868;DHT22;46702;48.370;10.794;2022-11-15T06:26:05;0.80;99.90
60868;DHT22;46702;48.370;10.794;2022-11-15T06:28:32;0.80;99.90
60868;DHT22;46702;48.370;10.794;2022-11-15T06:33:30;0.90;99.90
60868;DHT22;46702;48.370;10.794;2022-11-15T06:35:55;0.90;99.90
60868;DHT22;46702;48.370;10.794;2022-11-15T06:38:21;0.80;99.90
60868;DHT22;46702;48.370;10.794;2022-11-15T06:40:46;0.80;99.90
60868;DHT22;46702;48.370;10.794;2022-11-15T06:43:12;0.90;99.90
60868;DHT22;46702;48.370;10.794;2022-11-15T06:45:38;1.00;99.90
60868;DHT22;46702;48.370;10.794;2022-11-15T06:48:04;1.00;99.90
60868;DHT22;46702;48.370;10.794;2022-11-15T06:50:29;0.90;99.90
60868;DHT22;46702;48.370;10.794;2022-11-15T06:52:55;1.00;99.90
60868;DHT22;46702;48.370;10.794;2022-11-15T06:55:25;1.00;99.90
60868;DHT22;46702;48.370;10.794;2022-11-15T06:57:51;1.10;99.90
60868;DHT22;46702;48.370;10.794;2022-11-15T07:00:19;1.20;99.90
60868;DHT22;46702;48.370;10.794;2022-11-15T07:02:45;1.20;99.90
60868;DHT22;46702;48.370;10.794;2022-11-15T07:05:11;1.20;99.90
60868;DHT22;46702;48.370;10.794;2022-11-15T07:07:37;1.20;99.90
60868;DHT22;46702;48.370;10.794;2022-11-15T07:10:03;1.20;99.90
60868;DHT22;46702;48.370;10.794;2022-11-15T07:12:29;1.20;99.90
60868;DHT22;46702;48.370;10.794;2022-11-15T07:14:54;1.10;99.90
60868;DHT22;46702;48.370;10.794;2022-11-15T07:17:20;1.10;99.90
60868;DHT22;46702;48.370;10.794;2022-11-15T07:19:46;1.10;99.90
60868;DHT22;46702;48.370;10.794;2022-11-15T07:22:11;1.10;99.90
60868;DHT22;46702;48.370;10.794;2022-11-15T07:24:37;1.10;99.90
60868;DHT22;46702;48.370;10.794;2022-11-15T07:27:02;1.10;99.90
60868;DHT22;46702;48.370;10.794;2022-11-15T07:29:28;1.10;99.90
60868;DHT22;46702;48.370;10.794;2022-11-15T07:31:54;1.30;99.90
60868;DHT22;46702;48.370;10.794;2022-11-15T07:34:20;1.30;99.90
60868;DHT22;46702;48.370;10.794;2022-11-15T07:36:46;1.30;99.90
60868;DHT22;46702;48.370;10.794;2022-11-15T07:39:12;1.30;99.90
60868;DHT22;46702;48.370;10.794;2022-11-15T07:41:38;1.40;99.90
60868;DHT22;46702;48.370;10.794;2022-11-15T07:44:04;1.40;99.90
60868;DHT22;46702;48.370;10.794;2022-11-15T07:46:30;1.40;99.90
60868;DHT22;46702;48.370;10.794;2022-11-15T07:48:56;1.50;99.90
60868;DHT22;46702;48.370;10.794;2022-11-15T07:51:22;1.60;99.90
60868;DHT22;46702;48.370;10.794;2022-11-15T07:53:47;1.60;99.90
60868;DHT22;46702;48.370;10.794;2022-11-15T07:56:13;1.60;99.90
60868;DHT22;46702;48.370;10.794;2022-11-15T07:58:39;1.70;99.90
60868;DHT22;46702;48.370;10.794;2022-11-15T08:01:06;1.70;99.90
60868;DHT22;46702;48.370;10.794;2022-11-15T08:03:32;1.70;99.90
60868;DHT22;46702;48.370;10.794;2022-11-15T08:05:58;1.70;99.90
60868;DHT22;46702;48.370;10.794;2022-11-15T08:08:23;1.80;99.90
60868;DHT22;46702;48.370;10.794;2022-11-15T08:10:49;1.90;99.90
60868;DHT22;46702;48.370;10.794;2022-11-15T08:13:15;1.90;99.90
60868;DHT22;46702;48.370;10.794;2022-11-15T08:15:41;1.90;99.90
60868;DHT22;46702;48.370;10.794;2022-11-15T08:18:11;2.00;99.90
60868;DHT22;46702;48.370;10.794;2022-11-15T08:20:37;2.10;99.90
60868;DHT22;46702;48.370;10.794;2022-11-15T08:23:04;2.30;99.90
60868;DHT22;46702;48.370;10.794;2022-11-15T08:25:31;2.40;99.90
60868;DHT22;46702;48.370;10.794;2022-11-15T08:27:59;2.40;99.90
60868;DHT22;46702;48.370;10.794;2022-11-15T08:30:25;2.50;99.90
60868;DHT22;46702;48.370;10.794;2022-11-15T08:32:52;2.60;99.90
60868;DHT22;46702;48.370;10.794;2022-11-15T08:35:18;2.70;99.90
60868;DHT22;46702;48.370;10.794;2022-11-15T08:37:44;2.80;99.90
60868;DHT22;46702;48.370;10.794;2022-11-15T08:40:10;3.00;99.90
60868;DHT22;46702;48.370;10.794;2022-11-15T08:42:36;3.20;99.90
60868;DHT22;46702;48.370;10.794;2022-11-15T08:45:02;3.40;99.90
60868;DHT22;46702;48.370;10.794;2022-11-15T08:47:28;3.50;99.90
60868;DHT22;46702;48.370;10.794;2022-11-15T08:49:54;3.80;99.90
60868;DHT22;46702;48.370;10.794;2022-11-15T08:52:19;3.90;99.90
60868;DHT22;46702;48.370;10.794;2022-11-15T08:54:45;4.10;99.90
60868;DHT22;46702;48.370;10.794;2022-11-15T08:57:10;4.20;99.90
60868;DHT22;46702;48.370;10.794;2022-11-15T08:59:36;4.40;99.90
60868;DHT22;46702;48.370;10.794;2022-11-15T09:02:03;4.60;99.90
60868;DHT22;46702;48.370;10.794;2022-11-15T09:04:29;4.80;99.90
60868;DHT22;46702;48.370;10.794;2022-11-15T09:06:54;4.90;99.90
60868;DHT22;46702;48.370;10.794;2022-11-15T09:09:20;5.10;99.90
60868;DHT22;46702;48.370;10.794;2022-11-15T09:11:45;5.10;99.90
60868;DHT22;46702;48.370;10.794;2022-11-15T09:14:14;5.20;99.90
60868;DHT22;46702;48.370;10.794;2022-11-15T09:16:40;5.20;99.90
60868;DHT22;46702;48.370;10.794;2022-11-15T09:19:06;5.30;99.90
60868;DHT22;46702;48.370;10.794;2022-11-15T09:21:32;5.40;99.90
60868;DHT22;46702;48.370;10.794;2022-11-15T09:23:57;5.50;99.90
60868;DHT22;46702;48.370;10.794;2022-11-15T09:26:23;5.60;99.90
60868;DHT22;46702;48.370;10.794;2022-11-15T09:28:49;5.80;99.90
60868;DHT22;46702;48.370;10.794;2022-11-15T09:31:15;5.90;99.90
60868;DHT22;46702;48.370;10.794;2022-11-15T09:33:44;5.90;99.90
60868;DHT22;46702;48.370;10.794;2022-11-15T09:36:10;6.00;99.90
60868;DHT22;46702;48.370;10.794;2022-11-15T09:38:36;6.00;99.90
60868;DHT22;46702;48.370;10.794;2022-11-15T09:49:08;6.20;99.90
60868;DHT22;46702;48.370;10.794;2022-11-15T09:51:36;6.30;99.90
60868;DHT22;46702;48.370;10.794;2022-11-15T09:56:45;6.50;99.90
60868;DHT22;46702;48.370;10.794;2022-11-15T10:04:37;6.90;99.90
60868;DHT22;46702;48.370;10.794;2022-11-15T10:07:24;7.10;99.90
60868;DHT22;46702;48.370;10.794;2022-11-15T10:10:08;7.20;99.90
60868;DHT22;46702;48.370;10.794;2022-11-15T10:12:47;7.20;99.90
60868;DHT22;46702;48.370;10.794;2022-11-15T10:15:15;7.20;99.90
60868;DHT22;46702;48.370;10.794;2022-11-15T10:18:07;7.30;99.90
60868;DHT22;46702;48.370;10.794;2022-11-15T10:20:44;7.40;99.90
60868;DHT22;46702;48.370;10.794;2022-11-15T10:23:14;7.50;99.90
60868;DHT22;46702;48.370;10.794;2022-11-15T10:25:41;7.60;99.90
60868;DHT22;46702;48.370;10.794;2022-11-15T10:30:40;7.70;99.90
60868;DHT22;46702;48.370;10.794;2022-11-15T10:39:00;7.90;99.90
60868;DHT22;46702;48.370;10.794;2022-11-15T10:46:45;8.40;99.90
60868;DHT22;46702;48.370;10.794;2022-11-15T10:49:27;8.50;99.90
60868;DHT22;46702;48.370;10.794;2022-11-15T10:52:01;8.50;99.90
60868;DHT22;46702;48.370;10.794;2022-11-15T10:56:57;8.60;99.90
60868;DHT22;46702;48.370;10.794;2022-11-15T10:59:27;8.80;99.90
60868;DHT22;46702;48.370;10.794;2022-11-15T11:01:54;8.90;99.90
60868;DHT22;46702;48.370;10.794;2022-11-15T11:04:20;9.00;99.90
60868;DHT22;46702;48.370;10.794;2022-11-15T11:06:58;8.90;99.90
60868;DHT22;46702;48.370;10.794;2022-11-15T11:11:55;9.10;99.90
60868;DHT22;46702;48.370;10.794;2022-11-15T11:19:53;9.40;99.90
60868;DHT22;46702;48.370;10.794;2022-11-15T11:22:44;9.50;99.90
60868;DHT22;46702;48.370;10.794;2022-11-15T11:25:30;9.60;99.90
60868;DHT22;46702;48.370;10.794;2022-11-15T11:28:26;9.80;99.90
60868;DHT22;46702;48.370;10.794;2022-11-15T11:36:57;9.90;99.90
60868;DHT22;46702;48.370;10.794;2022-11-15T11:42:37;10.00;99.90
60868;DHT22;46702;48.370;10.794;2022-11-15T11:47:40;10.10;99.90
60868;DHT22;46702;48.370;10.794;2022-11-15T11:50:21;10.30;99.90
60868;DHT22;46702;48.370;10.794;2022-11-15T11:55:36;10.30;99.90
60868;DHT22;46702;48.370;10.794;2022-11-15T12:01:24;10.30;99.90
60868;DHT22;46702;48.370;10.794;2022-11-15T12:04:03;10.20;99.90
60868;DHT22;46702;48.370;10.794;2022-11-15T12:06:39;10.30;99.90
60868;DHT22;46702;48.370;10.794;2022-11-15T12:09:17;10.40;99.90
60868;DHT22;46702;48.370;10.794;2022-11-15T12:16:53;10.40;99.90
60868;DHT22;46702;48.370;10.794;2022-11-15T12:19:19;10.40;99.90
60868;DHT22;46702;48.370;10.794;2022-11-15T12:24:39;10.50;99.90
60868;DHT22;46702;48.370;10.794;2022-11-15T12:27:09;10.50;99.90
60868;DHT22;46702;48.370;10.794;2022-11-15T12:29:43;10.60;99.90
60868;DHT22;46702;48.370;10.794;2022-11-15T12:32:32;10.70;99.90
60868;DHT22;46702;48.370;10.794;2022-11-15T12:34:59;10.70;99.90
60868;DHT22;46702;48.370;10.794;2022-11-15T12:42:56;10.80;99.90
60868;DHT22;46702;48.370;10.794;2022-11-15T12:45:34;10.80;99.90
60868;DHT22;46702;48.370;10.794;2022-11-15T12:53:26;10.90;99.90
60868;DHT22;46702;48.370;10.794;2022-11-15T12:58:52;10.90;99.90
60868;DHT22;46702;48.370;10.794;2022-11-15T13:06:49;10.80;99.90
60868;DHT22;46702;48.370;10.794;2022-11-15T13:12:00;10.90;99.90
60868;DHT22;46702;48.370;10.794;2022-11-15T13:14:48;10.90;99.90
60868;DHT22;46702;48.370;10.794;2022-11-15T13:17:34;10.90;99.90
60868;DHT22;46702;48.370;10.794;2022-11-15T13:23:09;10.90;99.90
60868;DHT22;46702;48.370;10.794;2022-11-15T13:33:43;10.90;99.90
60868;DHT22;46702;48.370;10.794;2022-11-15T13:38:43;10.80;99.90
60868;DHT22;46702;48.370;10.794;2022-11-15T13:41:24;10.80;99.90
60868;DHT22;46702;48.370;10.794;2022-11-15T13:43:51;10.80;99.90
60868;DHT22;46702;48.370;10.794;2022-11-15T13:49:02;10.90;99.90
60868;DHT22;46702;48.370;10.794;2022-11-15T13:51:45;11.00;99.90
60868;DHT22;46702;48.370;10.794;2022-11-15T13:56:43;11.00;99.90
60868;DHT22;46702;48.370;10.794;2022-11-15T13:59:35;10.90;99.90
60868;DHT22;46702;48.370;10.794;2022-11-15T14:02:03;10.90;99.90
60868;DHT22;46702;48.370;10.794;2022-11-15T14:04:38;10.90;99.90
60868;DHT22;46702;48.370;10.794;2022-11-15T14:07:04;10.80;99.90
60868;DHT22;46702;48.370;10.794;2022-11-15T14:11:58;10.80;99.90
60868;DHT22;46702;48.370;10.794;2022-11-15T14:14:27;10.80;99.90
60868;DHT22;46702;48.370;10.794;2022-11-15T14:16:58;10.80;99.90
60868;DHT22;46702;48.370;10.794;2022-11-15T14:22:20;10.80;99.90
60868;DHT22;46702;48.370;10.794;2022-11-15T14:25:33;10.80;99.90
60868;DHT22;46702;48.370;10.794;2022-11-15T14:27:33;10.70;99.90
60868;DHT22;46702;48.370;10.794;2022-11-15T14:29:59;10.60;99.90
60868;DHT22;46702;48.370;10.794;2022-11-15T14:32:28;10.50;99.90
60868;DHT22;46702;48.370;10.794;2022-11-15T14:34:58;10.60;99.90
60868;DHT22;46702;48.370;10.794;2022-11-15T14:37:29;10.50;99.90
60868;DHT22;46702;48.370;10.794;2022-11-15T14:40:01;10.60;99.90
60868;DHT22;46702;48.370;10.794;2022-11-15T14:42:26;10.60;99.90
60868;DHT22;46702;48.370;10.794;2022-11-15T14:44:52;10.60;99.90
60868;DHT22;46702;48.370;10.794;2022-11-15T14:47:18;10.60;99.90
60868;DHT22;46702;48.370;10.794;2022-11-15T14:49:44;10.50;99.90
60868;DHT22;46702;48.370;10.794;2022-11-15T14:52:31;10.50;99.90
60868;DHT22;46702;48.370;10.794;2022-11-15T14:55:00;10.50;99.90
60868;DHT22;46702;48.370;10.794;2022-11-15T14:57:26;10.40;99.90
60868;DHT22;46702;48.370;10.794;2022-11-15T14:59:52;10.30;99.90
60868;DHT22;46702;48.370;10.794;2022-11-15T15:02:26;10.30;99.90
60868;DHT22;46702;48.370;10.794;2022-11-15T15:04:52;10.30;99.90
60868;DHT22;46702;48.370;10.794;2022-11-15T15:07:19;10.20;99.90
60868;DHT22;46702;48.370;10.794;2022-11-15T15:09:45;10.10;99.90
60868;DHT22;46702;48.370;10.794;2022-11-15T15:12:19;10.10;99.90
60868;DHT22;46702;48.370;10.794;2022-11-15T15:14:46;10.10;99.90
60868;DHT22;46702;48.370;10.794;2022-11-15T15:17:12;10.00;99.90
60868;DHT22;46702;48.370;10.794;2022-11-15T15:19:38;9.80;99.90
60868;DHT22;46702;48.370;10.794;2022-11-15T15:22:03;9.80;99.90
60868;DHT22;46702;48.370;10.794;2022-11-15T15:24:29;9.80;99.90
60868;DHT22;46702;48.370;10.794;2022-11-15T15:26:55;9.80;99.90
60868;DHT22;46702;48.370;10.794;2022-11-15T15:29:20;9.80;99.90
60868;DHT22;46702;48.370;10.794;2022-11-15T15:31:46;9.80;99.90
60868;DHT22;46702;48.370;10.794;2022-11-15T15:34:12;9.70;99.90
60868;DHT22;46702;48.370;10.794;2022-11-15T15:36:37;9.70;99.90
60868;DHT22;46702;48.370;10.794;2022-11-15T15:39:03;9.70;99.90
60868;DHT22;46702;48.370;10.794;2022-11-15T15:41:28;9.60;99.90
60868;DHT22;46702;48.370;10.794;2022-11-15T15:43:54;9.60;99.90
60868;DHT22;46702;48.370;10.794;2022-11-15T15:46:20;9.50;99.90
60868;DHT22;46702;48.370;10.794;2022-11-15T15:48:46;9.50;99.90
60868;DHT22;46702;48.370;10.794;2022-11-15T15:51:12;9.50;99.90
60868;DHT22;46702;48.370;10.794;2022-11-15T15:53:38;9.40;99.90
60868;DHT22;46702;48.370;10.794;2022-11-15T15:56:04;9.30;99.90
60868;DHT22;46702;48.370;10.794;2022-11-15T15:58:30;9.20;99.90
60868;DHT22;46702;48.370;10.794;2022-11-15T16:00:57;9.20;99.90
60868;DHT22;46702;48.370;10.794;2022-11-15T16:03:22;9.10;99.90
60868;DHT22;46702;48.370;10.794;2022-11-15T16:05:50;9.10;99.90
60868;DHT22;46702;48.370;10.794;2022-11-15T16:08:20;9.10;99.90
60868;DHT22;46702;48.370;10.794;2022-11-15T16:10:47;9.10;99.90
60868;DHT22;46702;48.370;10.794;2022-11-15T16:13:13;8.90;99.90
60868;DHT22;46702;48.370;10.794;2022-11-15T16:15:39;8.90;99.90
60868;DHT22;46702;48.370;10.794;2022-11-15T16:18:05;9.00;99.90
60868;DHT22;46702;48.370;10.794;2022-11-15T16:23:12;8.90;99.90
60868;DHT22;46702;48.370;10.794;2022-11-15T16:25:45;9.00;99.90
60868;DHT22;46702;48.370;10.794;2022-11-15T16:28:17;9.00;99.90
60868;DHT22;46702;48.370;10.794;2022-11-15T16:30:43;9.10;99.90
60868;DHT22;46702;48.370;10.794;2022-11-15T16:33:09;8.90;99.90
60868;DHT22;46702;48.370;10.794;2022-11-15T16:35:34;8.80;99.90
60868;DHT22;46702;48.370;10.794;2022-11-15T16:38:00;8.70;99.90
60868;DHT22;46702;48.370;10.794;2022-11-15T16:40:28;8.70;99.90
60868;DHT22;46702;48.370;10.794;2022-11-15T16:42:55;8.80;99.90
60868;DHT22;46702;48.370;10.794;2022-11-15T16:45:21;8.70;99.90
60868;DHT22;46702;48.370;10.794;2022-11-15T16:47:47;8.70;99.90
60868;DHT22;46702;48.370;10.794;2022-11-15T16:50:20;8.70;99.90
60868;DHT22;46702;48.370;10.794;2022-11-15T16:52:49;8.60;99.90
60868;DHT22;46702;48.370;10.794;2022-11-15T16:55:15;8.30;99.90
60868;DHT22;46702;48.370;10.794;2022-11-15T16:57:40;8.20;99.90
60868;DHT22;46702;48.370;10.794;2022-11-15T17:00:10;8.30;99.90
60868;DHT22;46702;48.370;10.794;2022-11-15T17:02:36;8.30;99.90
60868;DHT22;46702;48.370;10.794;2022-11-15T17:05:01;8.40;99.90
60868;DHT22;46702;48.370;10.794;2022-11-15T17:07:27;8.40;99.90
60868;DHT22;46702;48.370;10.794;2022-11-15T17:09:52;8.40;99.90
60868;DHT22;46702;48.370;10.794;2022-11-15T17:12:18;8.30;99.90
60868;DHT22;46702;48.370;10.794;2022-11-15T17:14:43;8.30;99.90
60868;DHT22;46702;48.370;10.794;2022-11-15T17:17:10;8.20;99.90
60868;DHT22;46702;48.370;10.794;2022-11-15T17:19:36;8.10;99.90
60868;DHT22;46702;48.370;10.794;2022-11-15T17:22:04;8.10;99.90
60868;DHT22;46702;48.370;10.794;2022-11-15T17:24:30;8.20;99.90
60868;DHT22;46702;48.370;10.794;2022-11-15T17:26:56;8.20;99.90
60868;DHT22;46702;48.370;10.794;2022-11-15T17:29:21;8.20;99.90
60868;DHT22;46702;48.370;10.794;2022-11-15T17:31:47;8.10;99.90
60868;DHT22;46702;48.370;10.794;2022-11-15T17:34:13;8.20;99.90
60868;DHT22;46702;48.370;10.794;2022-11-15T17:36:38;8.10;99.90
60868;DHT22;46702;48.370;10.794;2022-11-15T17:39:04;8.20;99.90
60868;DHT22;46702;48.370;10.794;2022-11-15T17:41:30;8.10;99.90
60868;DHT22;46702;48.370;10.794;2022-11-15T17:43:57;8.00;99.90
60868;DHT22;46702;48.370;10.794;2022-11-15T17:46:24;8.00;99.90
60868;DHT22;46702;48.370;10.794;2022-11-15T17:48:50;8.00;99.90
60868;DHT22;46702;48.370;10.794;2022-11-15T17:51:17;8.00;99.90
60868;DHT22;46702;48.370;10.794;2022-11-15T17:53:44;8.00;99.90
60868;DHT22;46702;48.370;10.794;2022-11-15T17:56:12;8.00;99.90
60868;DHT22;46702;48.370;10.794;2022-11-15T17:58:38;7.90;99.90
60868;DHT22;46702;48.370;10.794;2022-11-15T18:01:11;8.00;99.90